createdAt,value
2023-05-25T00:00:00.048Z,17.92
2023-05-25T00:02:09.209Z,16.05
2023-05-25T00:04:21.052Z,14.45
2023-05-25T00:06:28.565Z,11.15
2023-05-25T00:08:39.017Z,13.98
2023-05-25T00:10:50.718Z,14.77
2023-05-25T00:12:57.081Z,14.75
2023-05-25T00:15:17.412Z,12.38
2023-05-25T00:19:23.411Z,13.63
2023-05-25T00:23:31.684Z,12.57
2023-05-25T00:25:35.972Z,14.55
2023-05-25T00:27:40.354Z,14.38
2023-05-25T00:29:44.607Z,23.98
2023-05-25T00:32:04.932Z,16.08
2023-05-25T00:34:25.004Z,16.20
2023-05-25T00:36:32.096Z,14.10
2023-05-25T00:38:36.534Z,14.98
2023-05-25T00:40:39.188Z,20.45
2023-05-25T00:42:44.033Z,14.68
2023-05-25T00:45:04.374Z,15.48
2023-05-25T00:47:08.629Z,23.65
2023-05-25T00:49:16.810Z,15.02
2023-05-25T00:51:18.296Z,11.68
2023-05-25T00:53:19.703Z,13.30
2023-05-25T00:57:25.526Z,17.27
2023-05-25T00:59:44.229Z,13.38
2023-05-25T01:01:48.674Z,19.88
2023-05-25T01:03:54.003Z,17.50
2023-05-25T01:05:58.059Z,15.85
2023-05-25T01:08:01.741Z,19.65
2023-05-25T01:10:07.046Z,18.73
2023-05-25T01:12:09.292Z,13.73
2023-05-25T01:14:10.937Z,12.73
2023-05-25T01:16:31.382Z,12.73
2023-05-25T01:18:33.901Z,16.67
2023-05-25T01:21:13.050Z,17.80
2023-05-25T01:23:15.680Z,14.68
2023-05-25T01:25:25.296Z,17.27
2023-05-25T01:27:32.597Z,15.43
2023-05-25T01:29:39.097Z,16.38
2023-05-25T01:31:59.493Z,14.25
2023-05-25T01:34:01.376Z,18.52
2023-05-25T01:36:03.192Z,15.43
2023-05-25T01:38:04.737Z,14.13
2023-05-25T01:40:06.544Z,13.65
2023-05-25T01:42:08.034Z,11.15
2023-05-25T01:44:09.920Z,22.95
2023-05-25T01:46:17.625Z,14.63
2023-05-25T01:48:37.790Z,11.13
2023-05-25T01:50:47.769Z,18.73
2023-05-25T01:53:13.685Z,15.02
2023-05-25T01:55:16.616Z,19.70
2023-05-25T01:57:21.248Z,21.67
2023-05-25T01:59:26.218Z,16.55
2023-05-25T02:01:27.998Z,15.85
2023-05-25T02:03:29.541Z,16.00
2023-05-25T02:07:34.816Z,21.40
2023-05-25T02:09:36.269Z,20.08
2023-05-25T02:11:37.701Z,14.10
2023-05-25T02:13:42.067Z,14.75
2023-05-25T02:16:02.453Z,17.23
2023-05-25T02:18:06.704Z,16.00
2023-05-25T02:20:08.821Z,14.20
2023-05-25T02:22:10.494Z,17.02
2023-05-25T02:24:14.742Z,18.58
2023-05-25T02:26:16.783Z,12.85
2023-05-25T02:28:20.900Z,17.73
2023-05-25T02:30:25.460Z,18.02
2023-05-25T02:32:29.461Z,17.40
2023-05-25T02:36:35.143Z,15.07
2023-05-25T02:38:39.418Z,15.55
2023-05-25T02:40:45.629Z,19.83
2023-05-25T02:42:51.845Z,16.92
2023-05-25T02:44:56.585Z,14.98
2023-05-25T02:46:59.922Z,15.88
2023-05-25T02:49:21.402Z,20.25
2023-05-25T02:51:24.907Z,19.63
2023-05-25T02:53:28.469Z,23.60
2023-05-25T02:55:32.076Z,16.80
2023-05-25T02:57:35.323Z,14.95
2023-05-25T02:59:41.887Z,15.02
2023-05-25T03:02:03.256Z,19.30
2023-05-25T03:04:09.543Z,14.68
2023-05-25T03:06:15.984Z,14.98
2023-05-25T03:08:19.308Z,20.17
2023-05-25T03:10:22.508Z,14.65
2023-05-25T03:12:25.956Z,19.55
2023-05-25T03:14:29.375Z,23.38
2023-05-25T03:16:31.636Z,14.13
2023-05-25T03:18:33.191Z,16.23
2023-05-25T03:20:34.897Z,21.90
2023-05-25T03:22:39.168Z,17.02
2023-05-25T03:24:45.141Z,12.38
2023-05-25T03:26:46.620Z,21.52
2023-05-25T03:28:48.050Z,14.68
2023-05-25T03:30:52.460Z,24.33
2023-05-25T03:32:54.003Z,17.80
2023-05-25T03:34:55.711Z,14.52
2023-05-25T03:36:59.775Z,17.50
2023-05-25T03:39:01.320Z,11.95
2023-05-25T03:41:02.830Z,19.10
2023-05-25T03:43:04.322Z,19.50
2023-05-25T03:45:06.260Z,12.50
2023-05-25T03:47:11.428Z,8.93
2023-05-25T03:49:14.232Z,13.23
2023-05-25T03:51:18.638Z,17.10
2023-05-25T03:53:23.084Z,12.80
2023-05-25T03:55:24.536Z,10.52
2023-05-25T03:57:28.764Z,11.80
2023-05-25T03:59:30.830Z,13.57
2023-05-25T04:01:32.367Z,13.38
2023-05-25T04:03:34.073Z,14.20
2023-05-25T04:05:36.921Z,18.10
2023-05-25T04:07:38.595Z,16.02
2023-05-25T04:09:42.582Z,23.40
2023-05-25T04:11:44.562Z,17.98
2023-05-25T04:13:48.883Z,16.85
2023-05-25T04:15:54.774Z,18.92
2023-05-25T04:17:56.282Z,14.43
2023-05-25T04:19:57.865Z,10.90
2023-05-25T04:22:02.291Z,11.40
2023-05-25T04:24:09.560Z,13.45
2023-05-25T04:26:15.723Z,13.93
2023-05-25T04:28:20.276Z,12.57
2023-05-25T04:30:24.778Z,11.68
2023-05-25T04:32:45.864Z,12.25
2023-05-25T04:34:48.248Z,16.17
2023-05-25T04:36:53.200Z,15.80
2023-05-25T04:38:55.347Z,16.88
2023-05-25T04:40:57.777Z,17.65
2023-05-25T04:42:59.596Z,14.90
2023-05-25T04:45:01.577Z,15.00
2023-05-25T04:47:07.366Z,12.45
2023-05-25T04:49:13.249Z,15.55
2023-05-25T04:51:14.771Z,12.50
2023-05-25T04:55:20.206Z,17.50
2023-05-25T04:57:22.329Z,17.38
2023-05-25T04:59:29.428Z,13.38
2023-05-25T05:01:40.875Z,12.07
2023-05-25T05:03:45.728Z,15.88
2023-05-25T05:06:06.378Z,10.60
2023-05-25T05:08:08.028Z,18.52
2023-05-25T05:10:09.570Z,15.60
2023-05-25T05:12:14.161Z,12.43
2023-05-25T05:14:18.368Z,12.88
2023-05-25T05:16:19.961Z,13.70
2023-05-25T05:18:24.226Z,17.55
2023-05-25T05:20:28.627Z,12.75
2023-05-25T05:22:33.571Z,14.18
2023-05-25T05:24:37.917Z,13.13
2023-05-25T05:26:59.341Z,22.40
2023-05-25T05:29:19.970Z,14.23
2023-05-25T05:31:24.321Z,11.40
2023-05-25T05:33:29.005Z,18.35
2023-05-25T05:35:33.493Z,16.95
2023-05-25T05:37:53.658Z,15.65
2023-05-25T05:39:55.146Z,16.05
2023-05-25T05:41:56.735Z,11.40
2023-05-25T05:43:58.300Z,13.20
2023-05-25T05:46:18.544Z,16.92
2023-05-25T05:48:27.706Z,19.45
2023-05-25T05:50:33.037Z,19.48
2023-05-25T05:52:45.196Z,20.88
2023-05-25T05:55:13.177Z,23.00
2023-05-25T05:57:31.504Z,18.55
2023-05-25T05:59:53.144Z,19.80
2023-05-25T06:02:14.126Z,19.73
2023-05-25T06:04:45.366Z,17.58
2023-05-25T06:07:02.970Z,14.68
2023-05-25T06:09:10.756Z,17.60
2023-05-25T06:11:19.107Z,16.45
2023-05-25T06:13:36.042Z,17.58
2023-05-25T06:16:02.111Z,17.17
2023-05-25T06:18:27.085Z,23.85
2023-05-25T06:20:41.605Z,19.20
2023-05-25T06:23:16.370Z,16.23
2023-05-25T06:25:42.556Z,21.08
2023-05-25T06:28:02.971Z,22.90
2023-05-25T06:32:10.893Z,19.70
2023-05-25T06:34:15.478Z,21.50
2023-05-25T06:36:19.990Z,22.48
2023-05-25T06:38:24.203Z,17.55
2023-05-25T06:40:28.567Z,20.88
2023-05-25T06:42:32.607Z,23.70
2023-05-25T06:44:34.971Z,21.25
2023-05-25T06:46:36.644Z,18.30
2023-05-25T06:48:41.433Z,18.17
2023-05-25T06:50:42.981Z,20.67
2023-05-25T06:52:44.524Z,21.25
2023-05-25T06:55:05.320Z,21.08
2023-05-25T06:57:09.558Z,23.20
2023-05-25T06:59:11.011Z,21.15
2023-05-25T07:01:15.968Z,20.75
2023-05-25T07:03:20.325Z,23.98
2023-05-25T07:05:24.648Z,28.92
2023-05-25T07:07:26.535Z,14.90
2023-05-25T07:09:30.952Z,22.55
2023-05-25T07:11:35.467Z,21.48
2023-05-25T07:13:36.957Z,19.60
2023-05-25T07:15:41.340Z,14.80
2023-05-25T07:18:01.792Z,26.50
2023-05-25T07:20:04.889Z,19.85
2023-05-25T07:22:10.556Z,21.60
2023-05-25T07:24:30.799Z,25.98
2023-05-25T07:26:33.385Z,20.58
2023-05-25T07:28:53.722Z,24.00
2023-05-25T07:30:55.468Z,19.05
2023-05-25T07:33:00.124Z,24.42
2023-05-25T07:35:05.096Z,24.55
2023-05-25T07:37:25.434Z,21.98
2023-05-25T07:39:29.800Z,14.63
2023-05-25T07:41:31.506Z,23.23
2023-05-25T07:43:35.522Z,24.52
2023-05-25T07:45:37.129Z,24.05
2023-05-25T07:47:38.572Z,21.42
2023-05-25T07:49:43.169Z,23.77
2023-05-25T07:51:45.527Z,22.85
2023-05-25T07:53:47.182Z,23.25
2023-05-25T07:55:48.685Z,24.20
2023-05-25T08:00:12.907Z,16.38
2023-05-25T08:02:14.466Z,16.77
2023-05-25T08:04:19.046Z,21.20
2023-05-25T08:06:20.849Z,22.73
2023-05-25T08:08:25.257Z,20.20
2023-05-25T08:10:32.337Z,18.50
2023-05-25T08:12:46.026Z,22.30
2023-05-25T08:14:49.129Z,15.20
2023-05-25T08:16:51.343Z,19.38
2023-05-25T08:18:52.944Z,16.83
2023-05-25T08:20:54.541Z,18.48
2023-05-25T08:22:56.081Z,17.80
2023-05-25T08:25:00.199Z,13.85
2023-05-25T08:27:04.662Z,15.02
2023-05-25T08:29:06.370Z,14.32
2023-05-25T08:31:08.000Z,15.55
2023-05-25T08:33:12.959Z,19.05
2023-05-25T08:35:33.367Z,14.90
2023-05-25T08:37:37.701Z,14.57
2023-05-25T08:39:42.078Z,16.73
2023-05-25T08:41:46.182Z,11.75
2023-05-25T08:43:47.700Z,17.23
2023-05-25T08:45:59.964Z,15.27
2023-05-25T08:48:06.588Z,11.88
2023-05-25T08:50:11.701Z,13.57
2023-05-25T08:52:19.246Z,16.00
2023-05-25T08:54:31.919Z,9.52
2023-05-25T08:58:44.159Z,12.60
2023-05-25T09:00:53.905Z,13.25
2023-05-25T09:02:57.320Z,12.63
2023-05-25T09:05:04.174Z,10.48
2023-05-25T09:07:12.116Z,12.00
2023-05-25T09:09:15.595Z,8.95
2023-05-25T09:11:36.026Z,6.43
2023-05-25T09:13:44.741Z,11.45
2023-05-25T09:15:48.316Z,9.18
2023-05-25T09:17:55.350Z,10.35
2023-05-25T09:20:01.462Z,7.85
2023-05-25T09:22:15.700Z,8.85
2023-05-25T09:24:24.000Z,10.00
2023-05-25T09:26:49.886Z,14.70
2023-05-25T09:28:53.547Z,6.28
2023-05-25T09:31:00.469Z,5.75
2023-05-25T09:33:20.741Z,10.43
2023-05-25T09:35:41.368Z,9.55
2023-05-25T09:37:44.143Z,8.32
2023-05-25T09:39:48.565Z,8.80
2023-05-25T09:41:50.200Z,6.22
2023-05-25T09:44:02.286Z,8.65
2023-05-25T09:46:11.662Z,9.15
2023-05-25T09:48:16.299Z,7.15
2023-05-25T09:50:18.053Z,11.13
2023-05-25T09:52:19.582Z,12.60
2023-05-25T09:54:22.778Z,8.02
2023-05-25T09:56:28.342Z,5.60
2023-05-25T09:58:32.735Z,9.52
2023-05-25T10:00:37.296Z,10.13
2023-05-25T10:02:39.076Z,7.85
2023-05-25T10:04:43.501Z,11.32
2023-05-25T10:06:49.933Z,10.55
2023-05-25T10:08:53.730Z,9.48
2023-05-25T10:10:55.391Z,8.10
2023-05-25T10:13:00.558Z,4.78
2023-05-25T10:15:06.475Z,9.32
2023-05-25T10:17:10.098Z,9.68
2023-05-25T10:19:34.402Z,7.60
2023-05-25T10:21:42.740Z,7.20
2023-05-25T10:23:54.547Z,9.07
2023-05-25T10:26:00.434Z,7.93
2023-05-25T10:28:12.008Z,9.80
2023-05-25T10:30:14.289Z,6.43
2023-05-25T10:32:19.228Z,5.13
2023-05-25T10:34:21.284Z,6.00
2023-05-25T10:36:26.601Z,6.55
2023-05-25T10:38:31.698Z,10.00
2023-05-25T10:40:36.143Z,8.77
2023-05-25T10:42:38.018Z,7.70
2023-05-25T10:44:42.960Z,7.30
2023-05-25T10:46:45.696Z,7.70
2023-05-25T10:48:51.827Z,6.65
2023-05-25T10:50:53.385Z,5.60
2023-05-25T10:53:13.927Z,6.00
2023-05-25T10:55:18.367Z,5.57
2023-05-25T10:57:21.328Z,10.38
2023-05-25T10:59:26.157Z,6.53
2023-05-25T11:01:33.709Z,7.30
2023-05-25T11:03:45.068Z,6.32
2023-05-25T11:05:50.464Z,10.00
2023-05-25T11:07:58.908Z,7.90
2023-05-25T11:10:03.541Z,8.45
2023-05-25T11:12:05.193Z,7.20
2023-05-25T11:14:32.833Z,5.55
2023-05-25T11:16:36.330Z,5.22
2023-05-25T11:18:38.293Z,10.50
2023-05-25T11:20:40.254Z,5.43
2023-05-25T11:22:44.849Z,6.13
2023-05-25T11:24:47.331Z,7.15
2023-05-25T11:27:01.538Z,5.32
2023-05-25T11:29:13.765Z,8.38
2023-05-25T11:31:37.559Z,4.30
2023-05-25T11:33:44.889Z,7.53
2023-05-25T11:35:50.202Z,5.35
2023-05-25T11:37:53.613Z,8.35
2023-05-25T11:39:55.294Z,9.32
2023-05-25T11:41:57.609Z,7.22
2023-05-25T11:44:06.751Z,6.25
2023-05-25T11:46:27.599Z,5.32
2023-05-25T11:48:29.125Z,12.43
2023-05-25T11:50:31.116Z,7.68
2023-05-25T11:52:32.750Z,8.05
2023-05-25T11:54:36.873Z,7.10
2023-05-25T11:56:38.494Z,6.93
2023-05-25T11:58:44.771Z,7.95
2023-05-25T12:00:46.499Z,7.03
2023-05-25T12:02:49.253Z,5.40
2023-05-25T12:04:58.622Z,7.05
2023-05-25T12:07:05.561Z,7.72
2023-05-25T12:09:34.789Z,7.47
2023-05-25T12:11:49.550Z,6.70
2023-05-25T12:14:02.856Z,5.75
2023-05-25T12:16:13.279Z,10.77
2023-05-25T12:18:24.429Z,6.90
2023-05-25T12:20:36.886Z,5.15
2023-05-25T12:22:47.622Z,6.60
2023-05-25T12:25:02.285Z,4.65
2023-05-25T12:27:23.022Z,7.43
2023-05-25T12:29:35.605Z,5.07
2023-05-25T12:31:50.230Z,6.78
2023-05-25T12:34:13.616Z,8.70
2023-05-25T12:38:40.563Z,6.15
2023-05-25T12:41:11.609Z,7.20
2023-05-25T12:43:24.269Z,5.82
2023-05-25T12:45:30.611Z,6.18
2023-05-25T12:47:32.390Z,6.55
2023-05-25T12:49:34.320Z,7.13
2023-05-25T12:51:39.228Z,5.47
2023-05-25T12:53:48.164Z,6.20
2023-05-25T12:56:12.781Z,5.03
2023-05-25T12:58:33.030Z,6.53
2023-05-25T13:00:53.289Z,7.03
2023-05-25T13:02:57.857Z,8.07
2023-05-25T13:05:02.595Z,6.05
2023-05-25T13:07:10.680Z,10.95
2023-05-25T13:09:14.559Z,5.95
2023-05-25T13:11:18.778Z,8.73
2023-05-25T13:13:20.368Z,10.55
2023-05-25T13:15:22.014Z,5.03
2023-05-25T13:17:26.617Z,7.72
2023-05-25T13:19:34.109Z,7.68
2023-05-25T13:21:36.051Z,6.13
2023-05-25T13:23:38.925Z,6.05
2023-05-25T13:25:41.696Z,9.05
2023-05-25T13:27:44.345Z,8.43
2023-05-25T13:29:52.206Z,3.83
2023-05-25T13:31:53.775Z,7.07
2023-05-25T13:33:57.283Z,11.90
2023-05-25T13:35:59.079Z,7.82
2023-05-25T13:38:00.788Z,8.00
2023-05-25T13:40:02.292Z,5.13
2023-05-25T13:42:07.612Z,9.55
2023-05-25T13:44:15.144Z,8.27
2023-05-25T13:46:37.863Z,7.80
2023-05-25T13:48:40.243Z,7.88
2023-05-25T13:50:47.901Z,6.85
2023-05-25T13:52:49.448Z,6.43
2023-05-25T13:55:09.345Z,8.30
2023-05-25T13:57:16.581Z,8.98
2023-05-25T13:59:18.068Z,7.32
2023-05-25T14:01:27.560Z,5.25
2023-05-25T14:03:33.096Z,10.45
2023-05-25T14:05:40.915Z,9.70
2023-05-25T14:07:42.588Z,9.95
2023-05-25T14:09:47.108Z,6.18
2023-05-25T14:11:53.518Z,9.07
2023-05-25T14:13:55.482Z,7.13
2023-05-25T14:16:00.246Z,9.40
2023-05-25T14:18:20.306Z,6.57
2023-05-25T14:20:42.748Z,7.57
2023-05-25T14:23:02.950Z,5.43
2023-05-25T14:25:08.324Z,8.52
2023-05-25T14:27:09.932Z,9.50
2023-05-25T14:29:14.295Z,5.78
2023-05-25T14:31:18.900Z,11.13
2023-05-25T14:33:20.517Z,6.05
2023-05-25T14:35:23.540Z,9.38
2023-05-25T14:37:25.071Z,10.93
2023-05-25T14:39:29.822Z,13.07
2023-05-25T14:41:31.278Z,6.43
2023-05-25T14:43:38.886Z,11.40
2023-05-25T14:45:40.722Z,8.98
2023-05-25T14:47:45.101Z,11.90
2023-05-25T14:49:53.608Z,9.30
2023-05-25T14:51:55.176Z,9.65
2023-05-25T14:53:57.775Z,9.23
2023-05-25T14:56:04.074Z,8.00
2023-05-25T14:58:08.448Z,7.13
2023-05-25T15:00:29.085Z,12.88
2023-05-25T15:02:33.635Z,8.57
2023-05-25T15:04:38.252Z,9.23
2023-05-25T15:06:42.425Z,13.48
2023-05-25T15:08:47.026Z,8.52
2023-05-25T15:10:51.969Z,6.25
2023-05-25T15:12:53.830Z,11.18
2023-05-25T15:14:57.837Z,8.40
2023-05-25T15:17:13.915Z,7.00
2023-05-25T15:19:25.207Z,8.43
2023-05-25T15:21:40.814Z,6.70
2023-05-25T15:24:07.524Z,9.88
2023-05-25T15:26:17.783Z,10.43
2023-05-25T15:28:29.469Z,8.25
2023-05-25T15:30:39.165Z,9.13
2023-05-25T15:32:48.773Z,4.88
2023-05-25T15:34:53.547Z,9.82
2023-05-25T15:37:04.388Z,6.85
2023-05-25T15:39:14.314Z,7.07
2023-05-25T15:41:40.472Z,10.65
2023-05-25T15:44:05.568Z,11.30
2023-05-25T15:46:20.686Z,10.13
2023-05-25T15:48:26.575Z,11.43
2023-05-25T15:50:32.673Z,6.15
2023-05-25T15:52:52.897Z,10.60
2023-05-25T15:54:57.230Z,14.13
2023-05-25T15:57:18.272Z,10.30
2023-05-25T15:59:22.552Z,11.38
2023-05-25T16:01:26.861Z,11.60
2023-05-25T16:03:29.313Z,11.20
2023-05-25T16:05:49.464Z,11.48
2023-05-25T16:07:53.979Z,12.43
2023-05-25T16:10:14.202Z,10.30
2023-05-25T16:12:15.698Z,12.40
2023-05-25T16:14:35.950Z,15.43
2023-05-25T16:16:40.197Z,9.50
2023-05-25T16:18:41.849Z,10.48
2023-05-25T16:20:43.986Z,11.23
2023-05-25T16:22:48.635Z,16.77
2023-05-25T16:24:50.266Z,7.78
2023-05-25T16:26:51.995Z,11.55
2023-05-25T16:28:53.654Z,10.90
2023-05-25T16:30:57.691Z,11.23
2023-05-25T16:32:59.552Z,10.23
2023-05-25T16:35:03.864Z,9.55
2023-05-25T16:37:07.928Z,18.27
2023-05-25T16:39:11.682Z,16.17
2023-05-25T16:41:13.157Z,12.38
2023-05-25T16:43:14.581Z,7.38
2023-05-25T16:45:16.158Z,12.43
2023-05-25T16:47:20.565Z,15.85
2023-05-25T16:49:25.060Z,12.48
2023-05-25T16:51:26.560Z,10.63
2023-05-25T16:53:28.060Z,14.05
2023-05-25T16:55:33.649Z,8.63
2023-05-25T16:57:53.675Z,15.15
2023-05-25T16:59:57.722Z,11.52
2023-05-25T17:02:02.070Z,11.75
2023-05-25T17:04:06.561Z,9.38
2023-05-25T17:06:11.313Z,12.13
2023-05-25T17:08:12.912Z,17.25
2023-05-25T17:10:17.334Z,11.50
2023-05-25T17:12:18.960Z,9.77
2023-05-25T17:14:23.043Z,9.75
2023-05-25T17:16:24.737Z,11.15
2023-05-25T17:18:26.960Z,15.32
2023-05-25T17:20:47.132Z,13.85
2023-05-25T17:22:49.739Z,8.68
2023-05-25T17:24:51.186Z,8.02
2023-05-25T17:26:55.567Z,10.00
2023-05-25T17:29:00.956Z,10.77
2023-05-25T17:31:02.586Z,8.57
2023-05-25T17:33:06.982Z,7.13
2023-05-25T17:35:11.189Z,12.20
2023-05-25T17:37:15.525Z,9.80
2023-05-25T17:39:19.762Z,10.25
2023-05-25T17:41:24.330Z,9.65
2023-05-25T17:43:28.642Z,10.05
2023-05-25T17:45:35.904Z,9.90
2023-05-25T17:47:57.265Z,6.90
2023-05-25T17:50:01.503Z,8.48
2023-05-25T17:52:03.072Z,13.95
2023-05-25T17:54:04.577Z,10.20
2023-05-25T17:56:06.099Z,11.45
2023-05-25T17:58:26.511Z,5.95
2023-05-25T18:00:31.916Z,7.93
2023-05-25T18:02:34.140Z,8.25
2023-05-25T18:04:35.843Z,9.45
2023-05-25T18:06:40.161Z,6.65
2023-05-25T18:08:41.674Z,11.70
2023-05-25T18:10:45.903Z,11.32
2023-05-25T18:13:06.161Z,10.77
2023-05-25T18:15:10.645Z,8.77
2023-05-25T18:17:16.879Z,5.93
2023-05-25T18:19:42.584Z,8.65
2023-05-25T18:21:48.563Z,8.52
2023-05-25T18:24:11.717Z,6.10
2023-05-25T18:26:16.427Z,7.50
2023-05-25T18:28:25.085Z,8.50
2023-05-25T18:30:32.257Z,7.97
2023-05-25T18:34:39.316Z,10.50
2023-05-25T18:36:43.513Z,11.70
2023-05-25T18:39:06.367Z,9.60
2023-05-25T18:41:10.542Z,8.35
2023-05-25T18:43:32.813Z,8.32
2023-05-25T18:45:39.311Z,5.00
2023-05-25T18:48:08.056Z,6.28
2023-05-25T18:50:12.881Z,7.18
2023-05-25T18:52:18.877Z,8.85
2023-05-25T18:54:23.064Z,10.43
2023-05-25T18:56:27.109Z,16.02
2023-05-25T18:58:31.877Z,8.18
2023-05-25T19:00:36.009Z,9.15
2023-05-25T19:02:40.223Z,8.38
2023-05-25T19:04:44.382Z,9.07
2023-05-25T19:06:48.592Z,18.23
2023-05-25T19:09:08.776Z,9.88
2023-05-25T19:11:10.357Z,7.55
2023-05-25T19:13:14.455Z,8.57
2023-05-25T19:15:15.953Z,14.35
2023-05-25T19:17:21.507Z,8.02
2023-05-25T19:19:26.311Z,7.97
2023-05-25T19:21:30.312Z,6.75
2023-05-25T19:23:51.683Z,8.18
2023-05-25T19:25:53.152Z,9.35
2023-05-25T19:27:54.799Z,8.20
2023-05-25T19:29:56.320Z,13.82
2023-05-25T19:31:58.251Z,6.90
2023-05-25T19:33:59.768Z,7.03
2023-05-25T19:36:19.744Z,8.13
2023-05-25T19:38:22.141Z,10.38
2023-05-25T19:40:24.829Z,8.35
2023-05-25T19:42:45.031Z,6.93
2023-05-25T19:44:46.623Z,9.50
2023-05-25T19:47:07.015Z,8.20
2023-05-25T19:49:08.458Z,8.63
2023-05-25T19:51:13.040Z,16.50
2023-05-25T19:53:17.205Z,5.40
2023-05-25T19:55:18.673Z,10.13
2023-05-25T19:57:23.165Z,12.98
2023-05-25T19:59:28.089Z,11.63
2023-05-25T20:01:30.814Z,11.43
2023-05-25T20:03:32.395Z,6.13
2023-05-25T20:05:33.974Z,5.97
2023-05-25T20:07:36.040Z,11.13
2023-05-25T20:09:40.486Z,7.45
2023-05-25T20:11:42.177Z,8.00
2023-05-25T20:13:48.079Z,6.43
2023-05-25T20:15:52.387Z,8.13
2023-05-25T20:17:53.972Z,10.25
2023-05-25T20:20:00.800Z,7.18
2023-05-25T20:22:08.391Z,7.55
2023-05-25T20:24:10.067Z,8.80
2023-05-25T20:26:12.033Z,8.80
2023-05-25T20:28:16.322Z,13.43
2023-05-25T20:30:17.996Z,14.38
2023-05-25T20:32:38.194Z,8.90
2023-05-25T20:34:39.815Z,6.43
2023-05-25T20:36:44.462Z,10.30
2023-05-25T20:38:46.030Z,9.05
2023-05-25T20:40:50.171Z,14.43
2023-05-25T20:42:54.499Z,7.10
2023-05-25T20:44:56.165Z,7.57
2023-05-25T20:46:57.585Z,6.97
2023-05-25T20:49:03.481Z,10.20
2023-05-25T20:51:07.913Z,9.23
2023-05-25T20:53:10.726Z,7.47
2023-05-25T20:55:12.217Z,11.70
2023-05-25T20:57:16.583Z,7.53
2023-05-25T20:59:18.073Z,7.22
2023-05-25T21:01:19.590Z,7.82
2023-05-25T21:03:23.771Z,9.27
2023-05-25T21:05:44.959Z,8.13
2023-05-25T21:07:49.594Z,16.70
2023-05-25T21:09:51.239Z,9.48
2023-05-25T21:11:55.868Z,7.57
2023-05-25T21:13:57.390Z,9.43
2023-05-25T21:15:58.838Z,9.77
2023-05-25T21:18:18.929Z,13.63
2023-05-25T21:20:22.220Z,10.15
2023-05-25T21:22:24.297Z,8.98
2023-05-25T21:24:26.196Z,8.63
2023-05-25T21:26:31.067Z,8.10
2023-05-25T21:28:36.925Z,8.48
2023-05-25T21:30:49.110Z,7.63
2023-05-25T21:33:01.032Z,6.50
2023-05-25T21:35:10.881Z,9.68
2023-05-25T21:37:17.397Z,8.65
2023-05-25T21:43:37.171Z,13.25
2023-05-25T21:45:43.175Z,6.63
2023-05-25T21:48:06.708Z,9.60
2023-05-25T21:50:12.612Z,8.07
2023-05-25T21:52:23.863Z,12.77
2023-05-25T21:54:32.627Z,9.70
2023-05-25T21:56:56.393Z,12.43
2023-05-25T21:59:24.041Z,6.60
2023-05-25T22:01:32.736Z,9.82
2023-05-25T22:03:38.870Z,12.18
2023-05-25T22:05:43.442Z,10.15
2023-05-25T22:07:45.042Z,10.18
2023-05-25T22:09:49.427Z,9.88
2023-05-25T22:11:53.782Z,9.38
2023-05-25T22:13:58.303Z,10.65
2023-05-25T22:15:59.791Z,7.43
2023-05-25T22:18:05.935Z,11.70
2023-05-25T22:20:10.753Z,11.43
2023-05-25T22:22:15.338Z,11.20
2023-05-25T22:24:16.999Z,12.77
2023-05-25T22:26:18.509Z,9.82
2023-05-25T22:30:26.573Z,13.85
2023-05-25T22:32:28.114Z,9.32
2023-05-25T22:34:29.558Z,13.63
2023-05-25T22:36:31.116Z,12.00
2023-05-25T22:38:35.438Z,7.35
2023-05-25T22:40:36.916Z,11.63
2023-05-25T22:42:38.378Z,8.45
2023-05-25T22:44:42.634Z,11.10
2023-05-25T22:46:44.196Z,10.30
2023-05-25T22:48:48.670Z,9.35
2023-05-25T22:50:53.099Z,7.72
2023-05-25T22:52:58.447Z,11.23
2023-05-25T22:55:00.735Z,7.97
2023-05-25T22:57:05.791Z,6.13
2023-05-25T22:59:10.085Z,11.13
2023-05-25T23:01:11.546Z,9.82
2023-05-25T23:03:31.881Z,9.90
2023-05-25T23:05:36.277Z,11.95
2023-05-25T23:07:37.810Z,9.95
2023-05-25T23:09:42.545Z,15.30
2023-05-25T23:11:44.084Z,5.57
2023-05-25T23:13:48.773Z,8.20
2023-05-25T23:15:55.288Z,14.88
2023-05-25T23:17:57.002Z,10.90
2023-05-25T23:19:58.513Z,9.68
2023-05-25T23:22:03.087Z,8.25
2023-05-25T23:24:23.004Z,11.98
2023-05-25T23:28:31.327Z,11.05
2023-05-25T23:30:32.844Z,7.57
2023-05-25T23:32:34.737Z,10.23
2023-05-25T23:34:36.478Z,10.18
2023-05-25T23:36:42.786Z,6.78
2023-05-25T23:38:47.186Z,10.05
2023-05-25T23:40:51.576Z,7.20
2023-05-25T23:43:12.814Z,10.45
2023-05-25T23:45:14.412Z,12.05
2023-05-25T23:47:16.071Z,9.30
2023-05-25T23:49:20.321Z,6.90
2023-05-25T23:51:24.620Z,9.40
2023-05-25T23:53:26.133Z,10.93
2023-05-25T23:55:28.174Z,7.57
2023-05-25T23:57:32.605Z,12.35
2023-05-25T23:59:37.004Z,9.80
